Time;durP1;ratioP1;P1;durP2;ratioP2;P2;SDS_P1;SDS_P2;PMS_P1;PMS_P2;Temp;Humidity;BMP_temperature;BMP_pressure;BME280_temperature;BME280_humidity;BME280_pressure;Samples;Min_cycle;Max_cycle;Signal;HPM_P1;HPM_P2
2023/04/13 00:01:32;;;;;;;3.22;3.00;;;;;;;;;;4245802;28;20119;-59
2023/04/13 00:03:52;;;;;;;4.10;2.63;;;;;;;;;;4243727;28;20257;-59
2023/04/13 00:06:13;;;;;;;3.55;3.25;;;;;;;;;;4243725;28;20054;-60
2023/04/13 00:08:34;;;;;;;3.15;2.90;;;;;;;;;;4248448;28;20108;-59
2023/04/13 00:10:56;;;;;;;2.78;2.67;;;;;;;;;;4242423;28;20115;-59
2023/04/13 00:13:17;;;;;;;3.35;2.38;;;;;;;;;;4243547;28;20058;-59
2023/04/13 00:15:40;;;;;;;3.22;3.13;;;;;;;;;;4243119;27;20046;-59
2023/04/13 00:18:01;;;;;;;3.00;2.42;;;;;;;;;;4242923;28;20080;-59
2023/04/13 00:20:21;;;;;;;2.60;2.38;;;;;;;;;;4241420;28;20042;-59
2023/04/13 00:22:42;;;;;;;2.40;2.30;;;;;;;;;;4241172;28;20258;-59
2023/04/13 00:25:03;;;;;;;2.45;2.35;;;;;;;;;;4245201;28;20369;-59
2023/04/13 00:27:29;;;;;;;2.75;2.65;;;;;;;;;;4240534;28;20054;-59
2023/04/13 00:29:49;;;;;;;3.53;3.35;;;;;;;;;;4246158;28;20061;-59
2023/04/13 00:32:09;;;;;;;3.08;2.50;;;;;;;;;;4249211;28;20075;-59
2023/04/13 00:34:29;;;;;;;5.40;2.58;;;;;;;;;;4247566;28;20062;-59
2023/04/13 00:36:49;;;;;;;2.97;2.78;;;;;;;;;;4245436;27;20074;-60
2023/04/13 00:39:09;;;;;;;3.67;3.20;;;;;;;;;;4255287;27;20046;-59
2023/04/13 00:41:30;;;;;;;2.60;2.40;;;;;;;;;;4237272;28;20086;-60
2023/04/13 00:43:51;;;;;;;3.22;2.95;;;;;;;;;;4252040;28;20378;-60
2023/04/13 00:46:11;;;;;;;3.38;3.28;;;;;;;;;;4243950;28;20050;-59
2023/04/13 00:48:33;;;;;;;2.88;2.22;;;;;;;;;;4246523;28;20278;-59
2023/04/13 00:50:53;;;;;;;3.85;3.03;;;;;;;;;;4250378;28;20077;-60
2023/04/13 00:53:15;;;;;;;3.05;2.85;;;;;;;;;;4247005;28;20046;-59
2023/04/13 00:55:40;;;;;;;5.93;3.53;;;;;;;;;;4245453;28;20230;-60
2023/04/13 00:58:00;;;;;;;3.05;2.83;;;;;;;;;;4247757;28;20047;-60
2023/04/13 01:00:23;;;;;;;4.20;3.60;;;;;;;;;;4244296;28;20076;-59
2023/04/13 01:02:43;;;;;;;3.80;3.60;;;;;;;;;;4243343;28;20097;-60
2023/04/13 01:05:05;;;;;;;2.92;2.85;;;;;;;;;;4248146;28;20342;-59
2023/04/13 01:07:40;;;;;;;4.10;2.65;;;;;;;;;;4245625;28;20051;-59
2023/04/13 01:10:05;;;;;;;3.60;2.95;;;;;;;;;;4245762;28;20039;-59
2023/04/13 01:12:29;;;;;;;4.88;2.20;;;;;;;;;;4248688;28;20057;-60
2023/04/13 01:14:56;;;;;;;4.10;3.63;;;;;;;;;;4247606;28;20273;-60
2023/04/13 01:17:20;;;;;;;3.42;3.20;;;;;;;;;;4243708;28;20066;-59
2023/04/13 01:19:51;;;;;;;4.15;3.38;;;;;;;;;;4245822;28;20073;-59
2023/04/13 01:22:13;;;;;;;4.18;3.72;;;;;;;;;;4243382;28;20107;-59
2023/04/13 01:24:36;;;;;;;3.17;3.08;;;;;;;;;;4240971;28;20114;-59
2023/04/13 01:26:59;;;;;;;3.75;3.53;;;;;;;;;;4241938;28;20051;-60
2023/04/13 01:29:19;;;;;;;2.65;2.55;;;;;;;;;;4247526;28;20050;-60
2023/04/13 01:31:40;;;;;;;3.38;3.15;;;;;;;;;;4244642;28;20059;-59
2023/04/13 01:34:01;;;;;;;3.05;2.80;;;;;;;;;;4245805;28;20054;-59
2023/04/13 01:36:21;;;;;;;4.13;3.15;;;;;;;;;;4243518;28;20135;-59
2023/04/13 01:38:42;;;;;;;4.13;3.92;;;;;;;;;;4251434;28;20084;-60
2023/04/13 01:41:02;;;;;;;3.83;3.63;;;;;;;;;;4249728;28;20070;-60
2023/04/13 01:43:23;;;;;;;3.45;3.25;;;;;;;;;;4247375;28;20373;-59
2023/04/13 01:45:51;;;;;;;3.00;2.90;;;;;;;;;;4244285;28;20120;-59
2023/04/13 01:48:14;;;;;;;3.80;3.38;;;;;;;;;;4248501;28;20364;-59
2023/04/13 01:50:37;;;;;;;2.35;2.35;;;;;;;;;;4248879;28;20050;-60
2023/04/13 01:53:00;;;;;;;3.38;3.13;;;;;;;;;;4250048;28;20084;-59
2023/04/13 01:55:20;;;;;;;;;;;;;;;;;;4248266;28;20039;-59
2023/04/13 01:57:46;;;;;;;3.45;3.35;;;;;;;;;;4248494;28;19956;-60
2023/04/13 02:00:10;;;;;;;3.00;2.85;;;;;;;;;;4249571;28;20046;-60
2023/04/13 02:02:31;;;;;;;3.55;3.45;;;;;;;;;;4248911;28;20058;-59
2023/04/13 02:04:51;;;;;;;4.18;3.78;;;;;;;;;;4247258;28;20042;-60
2023/04/13 02:07:11;;;;;;;3.28;3.22;;;;;;;;;;4249174;28;20046;-60
2023/04/13 02:09:32;;;;;;;4.00;3.70;;;;;;;;;;4252255;28;20049;-59
2023/04/13 02:11:52;;;;;;;3.25;3.10;;;;;;;;;;4248631;28;20433;-60
2023/04/13 02:14:13;;;;;;;3.60;3.50;;;;;;;;;;4245540;28;20061;-59
2023/04/13 02:16:33;;;;;;;3.55;3.35;;;;;;;;;;4247382;28;20120;-59
2023/04/13 02:18:55;;;;;;;3.72;3.63;;;;;;;;;;4246564;28;20227;-59
2023/04/13 02:21:16;;;;;;;5.85;5.45;;;;;;;;;;4244872;28;20042;-59
2023/04/13 02:23:37;;;;;;;4.43;4.32;;;;;;;;;;4246315;28;20047;-59
2023/04/13 02:25:57;;;;;;;3.20;3.10;;;;;;;;;;4245947;28;20092;-59
2023/04/13 02:28:17;;;;;;;3.67;3.47;;;;;;;;;;4245470;28;20043;-60
2023/04/13 02:30:37;;;;;;;3.80;3.65;;;;;;;;;;4245741;28;20065;-59
2023/04/13 02:32:58;;;;;;;2.97;2.78;;;;;;;;;;4251949;28;20054;-59
2023/04/13 02:35:19;;;;;;;3.60;2.92;;;;;;;;;;4245613;28;20038;-59
2023/04/13 02:37:40;;;;;;;2.78;2.67;;;;;;;;;;4243629;28;20089;-60
2023/04/13 02:40:00;;;;;;;3.38;3.28;;;;;;;;;;4246271;28;20076;-59
2023/04/13 02:42:21;;;;;;;3.85;3.75;;;;;;;;;;4245358;28;20081;-59
2023/04/13 02:44:41;;;;;;;3.45;2.80;;;;;;;;;;4244125;28;20074;-59
2023/04/13 02:47:01;;;;;;;2.90;2.80;;;;;;;;;;4243425;28;20050;-59
2023/04/13 02:49:21;;;;;;;3.67;2.95;;;;;;;;;;4245323;28;20282;-59
2023/04/13 02:51:41;;;;;;;6.03;3.95;;;;;;;;;;4245261;28;20047;-59
2023/04/13 02:54:02;;;;;;;3.35;2.90;;;;;;;;;;4249458;28;20076;-59
2023/04/13 02:56:24;;;;;;;3.60;3.33;;;;;;;;;;4246133;28;20046;-59
2023/04/13 02:58:44;;;;;;;4.40;4.10;;;;;;;;;;4245072;28;20077;-59
2023/04/13 03:01:05;;;;;;;3.72;3.63;;;;;;;;;;4252839;28;20364;-59
2023/04/13 03:03:25;;;;;;;2.67;2.58;;;;;;;;;;4250028;28;20058;-59
2023/04/13 03:05:46;;;;;;;3.33;3.22;;;;;;;;;;4249209;28;20087;-59
2023/04/13 03:08:09;;;;;;;3.53;3.42;;;;;;;;;;4245827;28;20051;-60
2023/04/13 03:10:29;;;;;;;3.55;3.45;;;;;;;;;;4244040;28;20042;-59
2023/04/13 03:12:50;;;;;;;4.10;3.80;;;;;;;;;;4248036;28;20106;-59
2023/04/13 03:15:11;;;;;;;3.95;3.75;;;;;;;;;;4247028;28;20361;-59
2023/04/13 03:17:31;;;;;;;3.80;3.65;;;;;;;;;;4249336;28;20050;-59
2023/04/13 03:19:51;;;;;;;3.00;3.00;;;;;;;;;;4247094;28;20380;-59
2023/04/13 03:22:12;;;;;;;3.58;3.38;;;;;;;;;;4246232;28;20050;-59
2023/04/13 03:24:33;;;;;;;4.18;4.00;;;;;;;;;;4249213;28;20073;-60
2023/04/13 03:26:56;;;;;;;3.47;3.35;;;;;;;;;;4244481;28;20081;-59
2023/04/13 03:29:16;;;;;;;3.20;3.00;;;;;;;;;;4246419;28;20096;-60
2023/04/13 03:31:36;;;;;;;4.82;4.63;;;;;;;;;;4246382;28;20093;-60
2023/04/13 03:33:57;;;;;;;4.30;3.95;;;;;;;;;;4250277;28;20099;-60
2023/04/13 03:36:17;;;;;;;3.90;3.78;;;;;;;;;;4243475;28;20074;-60
2023/04/13 03:38:37;;;;;;;4.85;4.60;;;;;;;;;;4243844;28;20074;-60
2023/04/13 03:40:57;;;;;;;4.18;3.80;;;;;;;;;;4248096;28;20071;-60
2023/04/13 03:43:18;;;;;;;4.38;4.25;;;;;;;;;;4248568;28;20078;-60
2023/04/13 03:45:38;;;;;;;4.30;4.00;;;;;;;;;;4244280;28;20069;-59
2023/04/13 03:47:58;;;;;;;4.40;4.13;;;;;;;;;;4246453;28;20107;-59
2023/04/13 03:50:18;;;;;;;3.90;3.70;;;;;;;;;;4247151;28;20054;-60
2023/04/13 03:52:39;;;;;;;4.22;4.03;;;;;;;;;;4246408;28;20093;-59
2023/04/13 03:54:59;;;;;;;4.53;4.28;;;;;;;;;;4251939;28;20050;-60
2023/04/13 03:57:21;;;;;;;3.75;3.65;;;;;;;;;;4243680;28;20042;-60
2023/04/13 03:59:41;;;;;;;4.50;4.10;;;;;;;;;;4244207;28;20398;-60
2023/04/13 04:02:02;;;;;;;4.13;3.90;;;;;;;;;;4249852;28;20356;-60
2023/04/13 04:04:22;;;;;;;3.90;3.80;;;;;;;;;;4249689;28;20052;-59
2023/04/13 04:06:42;;;;;;;3.88;3.58;;;;;;;;;;4246365;28;20070;-59
2023/04/13 04:09:03;;;;;;;5.65;5.28;;;;;;;;;;4244919;28;20046;-60
2023/04/13 04:11:23;;;;;;;4.18;3.97;;;;;;;;;;4249874;28;20152;-60
2023/04/13 04:13:44;;;;;;;4.72;4.53;;;;;;;;;;4243427;28;20053;-60
2023/04/13 04:16:05;;;;;;;4.03;3.70;;;;;;;;;;4248470;28;20055;-60
2023/04/13 04:18:26;;;;;;;4.15;4.00;;;;;;;;;;4246717;28;20080;-60
2023/04/13 04:20:46;;;;;;;3.92;3.58;;;;;;;;;;4245588;28;20058;-60
2023/04/13 04:23:08;;;;;;;3.90;3.42;;;;;;;;;;4244493;28;20107;-59
2023/04/13 04:25:28;;;;;;;4.53;4.10;;;;;;;;;;4247731;28;20046;-60
2023/04/13 04:27:49;;;;;;;5.00;3.33;;;;;;;;;;4243470;28;20058;-60
2023/04/13 04:30:10;;;;;;;5.22;4.43;;;;;;;;;;4250112;28;20038;-59
2023/04/13 04:32:32;;;;;;;4.25;4.05;;;;;;;;;;4250107;28;20050;-60
2023/04/13 04:34:52;;;;;;;5.20;5.00;;;;;;;;;;4245468;28;20285;-60
2023/04/13 04:37:13;;;;;;;4.10;3.90;;;;;;;;;;4240959;28;20051;-60
2023/04/13 04:39:43;;;;;;;3.92;3.72;;;;;;;;;;4240857;28;20076;-60
2023/04/13 04:42:03;;;;;;;5.20;4.88;;;;;;;;;;4240299;28;20080;-60
2023/04/13 04:44:24;;;;;;;4.35;4.25;;;;;;;;;;4240201;28;20038;-60
2023/04/13 04:46:44;;;;;;;4.20;4.00;;;;;;;;;;4240871;28;20145;-60
2023/04/13 04:49:04;;;;;;;4.35;4.13;;;;;;;;;;4240761;28;20047;-60
2023/04/13 04:51:26;;;;;;;4.40;4.20;;;;;;;;;;4241242;28;20357;-60
2023/04/13 04:53:46;;;;;;;3.90;3.67;;;;;;;;;;4241441;28;20051;-60
2023/04/13 04:56:07;;;;;;;4.18;3.97;;;;;;;;;;4241279;28;20400;-60
2023/04/13 04:58:27;;;;;;;4.10;3.90;;;;;;;;;;4247690;28;20065;-59
2023/04/13 05:00:48;;;;;;;4.15;4.05;;;;;;;;;;4250817;28;20046;-59
2023/04/13 05:03:08;;;;;;;5.45;5.07;;;;;;;;;;4241924;28;20042;-60
2023/04/13 05:05:29;;;;;;;4.95;4.75;;;;;;;;;;4241921;28;20076;-59
2023/04/13 05:07:50;;;;;;;4.10;4.00;;;;;;;;;;4247837;27;20080;-60
2023/04/13 05:10:10;;;;;;;5.28;4.88;;;;;;;;;;4252906;28;20072;-60
2023/04/13 05:12:31;;;;;;;4.63;4.53;;;;;;;;;;4247369;28;20091;-59
2023/04/13 05:14:51;;;;;;;4.63;4.18;;;;;;;;;;4246854;28;20047;-59
2023/04/13 05:17:11;;;;;;;4.18;3.75;;;;;;;;;;4247845;28;20112;-60
2023/04/13 05:19:33;;;;;;;3.67;3.58;;;;;;;;;;4248851;28;20046;-61
2023/04/13 05:21:53;;;;;;;2.92;2.55;;;;;;;;;;4249178;28;20078;-61
2023/04/13 05:24:13;;;;;;;3.50;3.05;;;;;;;;;;4246673;28;20099;-61
2023/04/13 05:26:33;;;;;;;3.63;3.38;;;;;;;;;;4243995;28;20133;-61
2023/04/13 05:28:54;;;;;;;3.15;2.95;;;;;;;;;;4246354;28;20239;-61
2023/04/13 05:31:14;;;;;;;4.70;4.22;;;;;;;;;;4248094;28;20046;-61
2023/04/13 05:33:35;;;;;;;4.00;3.85;;;;;;;;;;4248438;28;20270;-61
2023/04/13 05:35:55;;;;;;;3.58;3.28;;;;;;;;;;4245972;27;20103;-61
2023/04/13 05:38:16;;;;;;;3.80;3.58;;;;;;;;;;4244623;28;20050;-61
2023/04/13 05:40:37;;;;;;;2.67;2.58;;;;;;;;;;4246613;28;20043;-61
2023/04/13 05:42:57;;;;;;;5.32;5.03;;;;;;;;;;4251194;28;20395;-61
2023/04/13 05:45:17;;;;;;;4.80;4.50;;;;;;;;;;4247899;28;20047;-61
2023/04/13 05:47:38;;;;;;;4.55;3.90;;;;;;;;;;4244124;28;20054;-61
2023/04/13 05:49:59;;;;;;;3.90;3.70;;;;;;;;;;4248203;28;20431;-61
2023/04/13 05:52:20;;;;;;;3.35;3.17;;;;;;;;;;4250152;28;20066;-61
2023/04/13 05:54:40;;;;;;;3.72;2.83;;;;;;;;;;4249067;28;20065;-61
2023/04/13 05:57:01;;;;;;;2.80;2.70;;;;;;;;;;4247269;28;20143;-61
2023/04/13 05:59:21;;;;;;;4.30;3.45;;;;;;;;;;4248718;28;20081;-61
2023/04/13 06:01:41;;;;;;;3.58;3.35;;;;;;;;;;4249319;28;20091;-61
2023/04/13 06:04:02;;;;;;;3.28;3.17;;;;;;;;;;4248506;28;20088;-61
2023/04/13 06:06:23;;;;;;;3.10;3.00;;;;;;;;;;4250120;28;20097;-61
2023/04/13 06:08:44;;;;;;;6.85;3.53;;;;;;;;;;4249913;28;20038;-61
2023/04/13 06:11:05;;;;;;;2.88;2.72;;;;;;;;;;4249573;28;20086;-61
2023/04/13 06:13:26;;;;;;;2.72;2.63;;;;;;;;;;4252715;28;20098;-61
2023/04/13 06:15:47;;;;;;;3.92;3.83;;;;;;;;;;4245938;28;20047;-60
2023/04/13 06:18:07;;;;;;;2.58;2.47;;;;;;;;;;4248095;28;20084;-61
2023/04/13 06:20:27;;;;;;;3.17;3.08;;;;;;;;;;4249987;28;20362;-61
2023/04/13 06:22:48;;;;;;;3.45;3.35;;;;;;;;;;4249525;28;20050;-60
2023/04/13 06:25:11;;;;;;;3.78;3.55;;;;;;;;;;4245209;28;20062;-60
2023/04/13 06:27:32;;;;;;;7.93;3.40;;;;;;;;;;4250241;28;20046;-60
2023/04/13 06:29:52;;;;;;;2.40;2.30;;;;;;;;;;4247346;28;20035;-60
2023/04/13 06:32:12;;;;;;;2.47;2.25;;;;;;;;;;4248969;28;20074;-60
2023/04/13 06:34:34;;;;;;;8.75;7.80;;;;;;;;;;4246200;28;20243;-60
2023/04/13 06:36:54;;;;;;;17.17;12.70;;;;;;;;;;4249702;28;20054;-61
2023/04/13 06:39:14;;;;;;;13.35;12.00;;;;;;;;;;4244860;28;20038;-60
2023/04/13 06:41:35;;;;;;;4.03;3.88;;;;;;;;;;4247159;28;20089;-61
2023/04/13 06:43:55;;;;;;;8.27;7.68;;;;;;;;;;4244725;28;20258;-61
2023/04/13 06:46:15;;;;;;;5.32;4.20;;;;;;;;;;4246467;28;20353;-60
2023/04/13 06:48:39;;;;;;;4.05;3.70;;;;;;;;;;4254209;28;20060;-61
2023/04/13 06:50:59;;;;;;;4.30;3.63;;;;;;;;;;4247301;28;20050;-60
2023/04/13 06:53:20;;;;;;;3.50;3.40;;;;;;;;;;4242796;28;20248;-61
2023/04/13 06:55:40;;;;;;;3.28;3.08;;;;;;;;;;4249604;28;20034;-61
2023/04/13 06:58:00;;;;;;;4.25;3.95;;;;;;;;;;4249299;28;20046;-61
2023/04/13 07:00:20;;;;;;;3.97;3.78;;;;;;;;;;4248550;28;20088;-61
2023/04/13 07:02:50;;;;;;;3.45;3.35;;;;;;;;;;4243318;28;20042;-60
2023/04/13 07:05:10;;;;;;;3.72;3.53;;;;;;;;;;4245211;28;20051;-60
2023/04/13 07:07:32;;;;;;;3.35;3.25;;;;;;;;;;4253681;28;20112;-61
2023/04/13 07:09:52;;;;;;;3.42;3.33;;;;;;;;;;4246267;28;20035;-61
2023/04/13 07:12:12;;;;;;;3.65;3.45;;;;;;;;;;4243780;28;20080;-60
2023/04/13 07:14:41;;;;;;;3.90;3.72;;;;;;;;;;4247667;28;20168;-61
2023/04/13 07:17:02;;;;;;;4.03;3.75;;;;;;;;;;4249271;28;20047;-61
2023/04/13 07:19:24;;;;;;;3.80;3.58;;;;;;;;;;4247220;28;20085;-61
2023/04/13 07:21:45;;;;;;;3.55;3.30;;;;;;;;;;4247432;28;20042;-60
2023/04/13 07:24:05;;;;;;;3.55;3.30;;;;;;;;;;4248763;28;20058;-60
2023/04/13 07:26:26;;;;;;;3.72;3.60;;;;;;;;;;4248583;28;20378;-61
2023/04/13 07:28:46;;;;;;;4.18;4.07;;;;;;;;;;4247339;28;20104;-60
2023/04/13 07:31:06;;;;;;;5.05;3.58;;;;;;;;;;4249865;28;20057;-61
2023/04/13 07:33:27;;;;;;;4.38;4.18;;;;;;;;;;4246820;28;20269;-61
2023/04/13 07:35:49;;;;;;;4.72;3.83;;;;;;;;;;4240292;28;20277;-61
2023/04/13 07:38:09;;;;;;;4.10;3.90;;;;;;;;;;4253015;28;20050;-61
2023/04/13 07:40:30;;;;;;;4.05;3.88;;;;;;;;;;4243733;28;20042;-61
2023/04/13 07:42:50;;;;;;;5.60;5.20;;;;;;;;;;4250559;28;20047;-61
2023/04/13 07:45:11;;;;;;;5.00;4.75;;;;;;;;;;4249411;28;20415;-60
2023/04/13 07:47:31;;;;;;;4.05;3.50;;;;;;;;;;4251322;28;20060;-61
2023/04/13 07:49:51;;;;;;;7.25;4.82;;;;;;;;;;4247376;28;20111;-61
2023/04/13 07:52:11;;;;;;;4.47;4.00;;;;;;;;;;4240203;28;20291;-61
2023/04/13 07:54:31;;;;;;;5.20;4.78;;;;;;;;;;4247587;28;20050;-61
2023/04/13 07:56:51;;;;;;;4.63;4.53;;;;;;;;;;4250002;28;20513;-61
2023/04/13 07:59:12;;;;;;;6.03;5.80;;;;;;;;;;4242038;28;20146;-61
2023/04/13 08:01:33;;;;;;;5.22;4.80;;;;;;;;;;4248072;28;20046;-61
2023/04/13 08:03:54;;;;;;;6.78;5.70;;;;;;;;;;4247714;28;20378;-61
2023/04/13 08:06:15;;;;;;;5.20;4.80;;;;;;;;;;4249310;28;20046;-60
2023/04/13 08:08:35;;;;;;;5.85;5.25;;;;;;;;;;4243079;28;20050;-60
2023/04/13 08:10:56;;;;;;;4.72;4.53;;;;;;;;;;4247051;28;20046;-61
2023/04/13 08:13:16;;;;;;;6.57;4.85;;;;;;;;;;4247172;28;20413;-61
2023/04/13 08:15:36;;;;;;;6.40;5.90;;;;;;;;;;4246890;28;20069;-60
2023/04/13 08:17:58;;;;;;;4.97;4.85;;;;;;;;;;4249993;28;20078;-61
2023/04/13 08:20:19;;;;;;;6.03;5.70;;;;;;;;;;4246475;28;20046;-61
2023/04/13 08:22:40;;;;;;;6.03;5.70;;;;;;;;;;4245389;28;20054;-61
2023/04/13 08:25:00;;;;;;;6.85;5.53;;;;;;;;;;4247374;28;20413;-61
2023/04/13 08:27:20;;;;;;;6.63;6.30;;;;;;;;;;4248361;28;20076;-61
2023/04/13 08:29:40;;;;;;;5.75;5.22;;;;;;;;;;4246627;28;20062;-61
2023/04/13 08:32:00;;;;;;;6.70;5.63;;;;;;;;;;4242783;28;20089;-61
2023/04/13 08:34:21;;;;;;;10.27;7.78;;;;;;;;;;4246351;28;20130;-60
2023/04/13 08:36:41;;;;;;;6.68;6.30;;;;;;;;;;4246614;27;20085;-61
2023/04/13 08:39:01;;;;;;;7.65;7.03;;;;;;;;;;4241689;28;20362;-61
2023/04/13 08:41:22;;;;;;;6.63;6.10;;;;;;;;;;4243325;28;20047;-61
2023/04/13 08:43:42;;;;;;;7.65;6.93;;;;;;;;;;4245551;28;20038;-61
2023/04/13 08:46:06;;;;;;;6.50;6.07;;;;;;;;;;4243521;28;20054;-61
2023/04/13 08:48:26;;;;;;;6.20;5.65;;;;;;;;;;4242052;28;20039;-61
2023/04/13 08:50:52;;;;;;;6.70;6.50;;;;;;;;;;4242668;28;20053;-61
2023/04/13 08:53:13;;;;;;;;;;;;;;;;;;4241870;28;20047;-61
2023/04/13 08:55:33;;;;;;;5.93;5.70;;;;;;;;;;4241183;28;19997;-61
2023/04/13 08:57:56;;;;;;;6.53;6.13;;;;;;;;;;4240396;28;20419;-61
2023/04/13 09:00:18;;;;;;;5.57;5.10;;;;;;;;;;4243941;28;20111;-61
2023/04/13 09:02:39;;;;;;;10.57;6.70;;;;;;;;;;4239896;28;20358;-61
2023/04/13 09:05:21;;;;;;;6.80;6.18;;;;;;;;;;4248049;28;20053;-61
2023/04/13 09:07:43;;;;;;;7.50;6.87;;;;;;;;;;4245361;28;20075;-61
2023/04/13 09:10:05;;;;;;;10.80;7.47;;;;;;;;;;4241486;28;20289;-60
2023/04/13 09:12:26;;;;;;;11.57;7.38;;;;;;;;;;4252717;28;20046;-61
2023/04/13 09:14:46;;;;;;;6.18;5.72;;;;;;;;;;4243212;28;20089;-61
2023/04/13 09:17:07;;;;;;;6.32;5.90;;;;;;;;;;4244700;28;20046;-61
2023/04/13 09:19:33;;;;;;;11.68;7.78;;;;;;;;;;4242914;28;20370;-61
2023/04/13 09:21:54;;;;;;;7.28;6.80;;;;;;;;;;4242101;28;20046;-61
2023/04/13 09:24:14;;;;;;;15.75;8.63;;;;;;;;;;4246026;28;20042;-61
2023/04/13 09:26:47;;;;;;;7.53;6.88;;;;;;;;;;4244437;28;20092;-60
2023/04/13 09:29:09;;;;;;;8.40;7.57;;;;;;;;;;4248903;28;20054;-61
2023/04/13 09:31:33;;;;;;;10.45;9.35;;;;;;;;;;4245693;27;20054;-61
2023/04/13 09:33:54;;;;;;;7.75;7.25;;;;;;;;;;4246578;28;20037;-62
2023/04/13 09:36:16;;;;;;;6.72;6.40;;;;;;;;;;4243175;27;20046;-62
2023/04/13 09:38:36;;;;;;;7.32;6.90;;;;;;;;;;4248968;28;20068;-61
2023/04/13 09:40:57;;;;;;;8.15;7.07;;;;;;;;;;4243078;28;20043;-61
2023/04/13 09:43:18;;;;;;;7.90;7.50;;;;;;;;;;4248681;28;20105;-61
2023/04/13 09:45:40;;;;;;;9.13;8.48;;;;;;;;;;4249376;28;20265;-61
2023/04/13 09:48:01;;;;;;;9.23;8.50;;;;;;;;;;4243675;28;20081;-61
2023/04/13 09:50:25;;;;;;;10.88;10.27;;;;;;;;;;4242596;28;20054;-61
2023/04/13 09:52:46;;;;;;;13.70;10.90;;;;;;;;;;4247784;28;20051;-61
2023/04/13 09:55:15;;;;;;;13.40;9.07;;;;;;;;;;4248948;28;20046;-61
2023/04/13 09:57:36;;;;;;;9.43;8.88;;;;;;;;;;4249666;28;20038;-61
2023/04/13 09:59:59;;;;;;;9.65;8.82;;;;;;;;;;4244935;28;20070;-61
2023/04/13 10:02:19;;;;;;;;;;;;;;;;;;4251894;28;20042;-61
2023/04/13 10:04:40;;;;;;;11.38;10.20;;;;;;;;;;4248292;28;19950;-61
2023/04/13 10:07:00;;;;;;;11.48;8.88;;;;;;;;;;4249518;28;20096;-62
2023/04/13 10:09:21;;;;;;;4.60;4.38;;;;;;;;;;4250669;28;20127;-62
2023/04/13 10:11:44;;;;;;;4.95;4.60;;;;;;;;;;4251642;28;20226;-62
2023/04/13 10:14:08;;;;;;;3.00;2.90;;;;;;;;;;4249399;28;20320;-61
2023/04/13 10:16:35;;;;;;;2.97;2.78;;;;;;;;;;4243761;28;20318;-61
2023/04/13 10:19:05;;;;;;;4.03;3.33;;;;;;;;;;4254471;28;20455;-61
2023/04/13 10:21:38;;;;;;;4.95;4.50;;;;;;;;;;4249495;28;20111;-61
2023/04/13 10:23:58;;;;;;;4.80;4.60;;;;;;;;;;4247151;28;20053;-61
2023/04/13 10:26:29;;;;;;;5.70;5.40;;;;;;;;;;4246437;28;20043;-61
2023/04/13 10:28:49;;;;;;;5.47;5.13;;;;;;;;;;4250877;28;20103;-61
2023/04/13 10:31:10;;;;;;;5.22;4.68;;;;;;;;;;4251863;28;20115;-61
2023/04/13 10:33:31;;;;;;;4.25;4.00;;;;;;;;;;4250002;28;20096;-61
2023/04/13 10:35:58;;;;;;;5.28;4.97;;;;;;;;;;4251367;27;20058;-61
2023/04/13 10:38:18;;;;;;;5.63;5.40;;;;;;;;;;4252446;28;20369;-61
2023/04/13 10:40:45;;;;;;;6.55;5.85;;;;;;;;;;4244366;28;20081;-61
2023/04/13 10:43:05;;;;;;;11.32;10.18;;;;;;;;;;4250774;28;20050;-61
2023/04/13 10:45:26;;;;;;;8.68;8.05;;;;;;;;;;4247302;28;20042;-61
2023/04/13 10:47:47;;;;;;;4.78;4.25;;;;;;;;;;4245650;28;20047;-61
2023/04/13 10:50:16;;;;;;;4.53;4.32;;;;;;;;;;4244895;28;20043;-61
2023/04/13 10:52:36;;;;;;;4.60;4.40;;;;;;;;;;4246708;28;20089;-61
2023/04/13 10:54:57;;;;;;;5.95;5.75;;;;;;;;;;4246208;28;20073;-61
2023/04/13 10:57:18;;;;;;;7.43;6.97;;;;;;;;;;4246258;28;20050;-62
2023/04/13 10:59:39;;;;;;;5.15;4.93;;;;;;;;;;4244344;28;20274;-61
2023/04/13 11:02:17;;;;;;;7.13;6.82;;;;;;;;;;4251759;28;20034;-62
2023/04/13 11:04:38;;;;;;;7.32;5.68;;;;;;;;;;4244261;28;20261;-61
2023/04/13 11:06:59;;;;;;;6.40;6.10;;;;;;;;;;4243406;28;20054;-62
2023/04/13 11:09:21;;;;;;;6.30;6.05;;;;;;;;;;4247831;28;20231;-61
2023/04/13 11:11:41;;;;;;;5.28;5.00;;;;;;;;;;4245928;28;20050;-61
2023/04/13 11:14:02;;;;;;;6.68;6.43;;;;;;;;;;4243595;28;20072;-62
2023/04/13 11:16:22;;;;;;;5.72;5.60;;;;;;;;;;4248172;28;20046;-62
2023/04/13 11:18:42;;;;;;;5.82;5.60;;;;;;;;;;4246497;28;20365;-62
2023/04/13 11:21:03;;;;;;;7.93;7.50;;;;;;;;;;4250969;28;20456;-62
2023/04/13 11:23:33;;;;;;;5.97;5.57;;;;;;;;;;4245071;28;20051;-62
2023/04/13 11:25:56;;;;;;;5.32;4.90;;;;;;;;;;4248191;28;20066;-62
2023/04/13 11:28:17;;;;;;;6.82;6.43;;;;;;;;;;4245232;28;20050;-62
2023/04/13 11:30:37;;;;;;;5.88;5.65;;;;;;;;;;4244064;28;20034;-62
2023/04/13 11:32:58;;;;;;;6.80;6.60;;;;;;;;;;4248867;28;20370;-62
2023/04/13 11:35:20;;;;;;;8.95;8.30;;;;;;;;;;4250492;28;20162;-62
2023/04/13 11:37:49;;;;;;;5.25;4.95;;;;;;;;;;4249793;28;20047;-62
2023/04/13 11:42:37;;;;;;;8.23;7.60;;;;;;;;;;4250938;28;20065;-61
2023/04/13 11:44:57;;;;;;;7.05;6.65;;;;;;;;;;4250695;28;20045;-61
2023/04/13 11:47:18;;;;;;;6.30;6.05;;;;;;;;;;4247662;28;20389;-62
2023/04/13 11:49:40;;;;;;;6.20;5.68;;;;;;;;;;4244420;28;20054;-61
2023/04/13 11:52:01;;;;;;;4.85;4.57;;;;;;;;;;4250622;28;20231;-62
2023/04/13 11:54:21;;;;;;;5.70;5.50;;;;;;;;;;4250261;28;20038;-61
2023/04/13 11:56:41;;;;;;;5.88;5.22;;;;;;;;;;4249415;28;20053;-62
2023/04/13 11:59:01;;;;;;;6.72;5.65;;;;;;;;;;4250192;28;20038;-62
2023/04/13 12:01:23;;;;;;;5.22;5.03;;;;;;;;;;4243458;28;20041;-62
2023/04/13 12:03:50;;;;;;;6.63;6.20;;;;;;;;;;4245286;28;20096;-62
2023/04/13 12:06:29;;;;;;;5.65;5.40;;;;;;;;;;4247176;28;20049;-61
2023/04/13 12:08:50;;;;;;;11.05;5.93;;;;;;;;;;4245159;28;20057;-61
2023/04/13 12:11:17;;;;;;;38.95;10.45;;;;;;;;;;4242901;28;20235;-61
2023/04/13 12:13:58;;;;;;;20.92;8.25;;;;;;;;;;4248073;28;20226;-61
2023/04/13 12:16:33;;;;;;;6.65;6.25;;;;;;;;;;4244266;28;20235;-60
2023/04/13 12:19:13;;;;;;;5.22;4.93;;;;;;;;;;4244042;28;20243;-61
2023/04/13 12:21:36;;;;;;;6.10;5.80;;;;;;;;;;4245050;28;20050;-60
2023/04/13 12:23:58;;;;;;;4.57;4.07;;;;;;;;;;4247418;28;20122;-61
2023/04/13 12:26:19;;;;;;;4.53;3.83;;;;;;;;;;4246118;28;20274;-62
2023/04/13 12:29:02;;;;;;;7.32;6.60;;;;;;;;;;4245304;28;20291;-61
2023/04/13 12:31:22;;;;;;;4.55;4.25;;;;;;;;;;4249929;28;20373;-60
2023/04/13 12:33:43;;;;;;;3.45;3.35;;;;;;;;;;4243141;28;20273;-62
2023/04/13 12:36:05;;;;;;;4.03;3.78;;;;;;;;;;4247218;27;20136;-61
2023/04/13 12:38:26;;;;;;;5.32;4.50;;;;;;;;;;4249754;28;20065;-61
2023/04/13 12:40:46;;;;;;;14.55;4.60;;;;;;;;;;4240648;28;20058;-61
2023/04/13 12:43:06;;;;;;;2.95;2.85;;;;;;;;;;4244442;28;20381;-61
2023/04/13 12:45:27;;;;;;;4.68;3.97;;;;;;;;;;4245630;28;20046;-61
2023/04/13 12:47:47;;;;;;;3.38;2.92;;;;;;;;;;4247150;28;20054;-62
2023/04/13 12:50:08;;;;;;;3.15;2.83;;;;;;;;;;4244089;28;20064;-61
2023/04/13 12:52:31;;;;;;;3.25;3.08;;;;;;;;;;4242590;28;20370;-61
2023/04/13 12:54:51;;;;;;;3.38;3.28;;;;;;;;;;4246923;28;20051;-61
2023/04/13 12:57:15;;;;;;;2.88;2.78;;;;;;;;;;4244575;28;20374;-61
2023/04/13 12:59:36;;;;;;;2.78;2.67;;;;;;;;;;4242347;28;20082;-61
2023/04/13 13:01:56;;;;;;;3.50;3.30;;;;;;;;;;4242307;28;20050;-61
2023/04/13 13:04:16;;;;;;;4.32;4.13;;;;;;;;;;4243616;28;20407;-61
2023/04/13 13:06:37;;;;;;;3.33;3.22;;;;;;;;;;4241725;28;20046;-61
2023/04/13 13:08:57;;;;;;;4.63;4.32;;;;;;;;;;4241549;28;20115;-61
2023/04/13 13:11:18;;;;;;;9.05;4.47;;;;;;;;;;4247253;28;20081;-61
2023/04/13 13:13:38;;;;;;;5.32;5.13;;;;;;;;;;4242653;28;20042;-61
2023/04/13 13:15:58;;;;;;;5.03;4.85;;;;;;;;;;4240000;28;20046;-61
2023/04/13 13:18:19;;;;;;;3.58;3.47;;;;;;;;;;4249438;28;20107;-61
2023/04/13 13:20:40;;;;;;;4.60;3.75;;;;;;;;;;4246494;28;20043;-61
2023/04/13 13:23:00;;;;;;;2.72;2.72;;;;;;;;;;4250728;28;20058;-61
2023/04/13 13:25:20;;;;;;;4.40;4.07;;;;;;;;;;4243735;28;20133;-61
2023/04/13 13:27:40;;;;;;;3.13;2.90;;;;;;;;;;4248865;28;20046;-61
2023/04/13 13:30:22;;;;;;;5.72;3.58;;;;;;;;;;4246313;28;20115;-61
2023/04/13 13:32:43;;;;;;;4.32;4.13;;;;;;;;;;4248079;28;20072;-61
2023/04/13 13:35:04;;;;;;;5.90;5.40;;;;;;;;;;4253232;28;20050;-61
2023/04/13 13:37:24;;;;;;;5.60;5.07;;;;;;;;;;4253005;28;20084;-61
2023/04/13 13:39:45;;;;;;;2.97;2.90;;;;;;;;;;4247476;28;20123;-61
2023/04/13 13:42:06;;;;;;;3.25;3.05;;;;;;;;;;4248402;28;20050;-61
2023/04/13 13:44:26;;;;;;;3.30;3.22;;;;;;;;;;4248844;28;20080;-61
2023/04/13 13:46:47;;;;;;;3.30;2.80;;;;;;;;;;4251881;28;20038;-60
2023/04/13 13:49:07;;;;;;;3.15;3.00;;;;;;;;;;4248042;28;20078;-61
2023/04/13 13:51:27;;;;;;;4.93;4.72;;;;;;;;;;4249666;28;20046;-61
2023/04/13 13:53:47;;;;;;;3.85;3.78;;;;;;;;;;4248886;28;20043;-60
2023/04/13 13:56:08;;;;;;;3.58;3.38;;;;;;;;;;4253207;28;20153;-60
2023/04/13 13:58:28;;;;;;;3.83;3.63;;;;;;;;;;4245993;28;20046;-61
2023/04/13 14:00:49;;;;;;;4.65;4.25;;;;;;;;;;4249070;28;20057;-61
2023/04/13 14:03:10;;;;;;;4.15;3.85;;;;;;;;;;4247013;28;20062;-61
2023/04/13 14:05:31;;;;;;;5.25;4.88;;;;;;;;;;4250552;28;20038;-60
2023/04/13 14:07:51;;;;;;;3.63;3.53;;;;;;;;;;4247020;28;20173;-61
2023/04/13 14:10:11;;;;;;;5.47;4.93;;;;;;;;;;4248911;28;20269;-61
2023/04/13 14:12:31;;;;;;;6.30;5.93;;;;;;;;;;4246974;28;20046;-61